Flight Track Log - Related Links

Times and Time Zones

All times are in EDT time to prevent confusion due to time zone crossing. See the RAX500 flight status page for this flight to view local times or setup timezone preferences in your user account.

Time Position Orientation Groundspeed Altitude Reporting Facility
EDT Latitude Longitude Course Direction KTS MPH feet Rate Location/Type
Fri 11:09:24 AM 38.8281 -77.4489 185° South 232 267 6,800  Level Washington Center
Fri 11:10:24 AM 38.7547 -77.4764 196° South 245 282 9,700 2,900 Climbing Washington Center
Fri 11:11:24 AM 38.6753 -77.5036 195° South 278 320 12,600 2,826 Climbing Washington Center
Fri 11:12:25 AM 38.5939 -77.4936 175° South 293 337 15,400 2,579 Climbing Washington Center
Fri 11:13:25 AM 38.5067 -77.4861 176° South 307 353 17,800 2,420 Climbing Washington Center
Fri 11:14:24 AM 38.4244 -77.5369 206° Southwest 312 359 20,200 1,600 Climbing Washington Center
Fri 11:15:25 AM 38.3458 -77.6197 220° Southwest 341 392 21,000 397 Climbing Washington Center
Fri 11:16:25 AM 38.2711 -77.7233 227° Southwest 364 419 21,000  Level Washington Center
Fri 11:17:23 AM 38.2067 -77.8325 233° Southwest 384 442 21,000 151 Level Washington Center
Fri 11:18:24 AM 38.1419 -77.9467 234° Southwest 392 451 21,300 836 Climbing Washington Center
Fri 11:19:25 AM 38.0728 -78.0633 233° Southwest 404 465 22,700 1,339 Climbing Washington Center
Fri 11:20:25 AM 38.0017 -78.1664 229° Southwest 403 464 24,000 650 Climbing Washington Center
Fri 11:21:25 AM 37.9119 -78.2686 222° Southwest 397 457 24,000  Level Washington Center
Fri 11:22:23 AM 37.8203 -78.3547 217° Southwest 405 466 24,000  Level Washington Center
Fri 11:23:24 AM 37.7267 -78.4381 215° Southwest 417 480 24,000 298 Level Washington Center
Fri 11:24:24 AM 37.6414 -78.5161 216° Southwest 423 487 24,600 700 Climbing Washington Center
Fri 11:25:24 AM 37.5472 -78.6014 216° Southwest 423 487 25,400 843 Climbing Washington Center
Fri 11:26:25 AM 37.4556 -78.6867 216° Southwest 423 487 26,300 787 Climbing Washington Center
Fri 11:27:26 AM 37.3594 -78.7692 214° Southwest 417 480 27,000 814 Climbing Washington Center
Fri 11:28:23 AM 37.2547 -78.8667 217° Southwest 422 486 27,900 872 Climbing Washington Center
Fri 11:29:23 AM 37.1583 -78.9511 215° Southwest 422 486 28,700 793 Climbing Washington Center
Fri 11:30:24 AM 37.0642 -79.0356 216° Southwest 422 486 29,500 738 Climbing Washington Center
Fri 11:31:25 AM 36.9700 -79.1197 216° Southwest 422 486 30,200 744 Climbing Washington Center
Fri 11:32:25 AM 36.8736 -79.2036 215° Southwest 417 480 31,000 763 Climbing Washington Center
Fri 11:33:23 AM 36.7794 -79.2847 215° Southwest 417 480 31,700 706 Climbing Washington Center
Fri 11:34:24 AM 36.6933 -79.3608 215° Southwest 417 480 32,400 694 Climbing Washington Center
Fri 11:35:24 AM 36.6031 -79.4469 217° Southwest 417 480 33,100 744 Climbing Washington Center
Fri 11:36:25 AM 36.5167 -79.5358 220° Southwest 411 473 33,900 817 Climbing Washington Center
Fri 11:38:13 AM 36.3531 -79.7028 219° Southwest 404 465 35,400 714 Climbing Atlanta Center
Fri 11:39:13 AM 36.2706 -79.7947 222° Southwest 399 459 35,900 550 Climbing Atlanta Center
Fri 11:40:13 AM 36.1903 -79.8839 222° Southwest 399 459 36,500 550 Climbing Atlanta Center
Fri 11:41:13 AM 36.1069 -79.9497 213° Southwest 399 459 37,000 500 Climbing Atlanta Center
Fri 11:42:13 AM 36.0069 -80.0139 207° Southwest 399 459 37,500 550 Climbing Atlanta Center
Fri 11:43:13 AM 35.9019 -80.0550 198° South 404 465 38,100 550 Climbing Atlanta Center
Fri 11:44:13 AM 35.7967 -80.0961 198° South 404 465 38,600 550 Climbing Atlanta Center
Fri 11:45:13 AM 35.6794 -80.1425 198° South 399 459 39,200 500 Climbing Atlanta Center
Fri 11:46:13 AM 35.5719 -80.1783 195° South 399 459 39,600 350 Climbing Atlanta Center
Fri 11:47:13 AM 35.4625 -80.2114 194° South 406 467 39,900 200 Climbing Atlanta Center
Fri 11:48:13 AM 35.3511 -80.2497 196° South 411 473 40,000 32 Climbing Atlanta Center
Fri 11:50:20 AM 35.1244 -80.3217 195° South 413 475 40,000  Level Jacksonville Center
Fri 11:51:20 AM 35.0147 -80.3581 195° South 413 475 40,000  Level Jacksonville Center
Fri 11:52:20 AM 34.9069 -80.3917 194° South 408 470 40,000  Level Jacksonville Center
Fri 11:53:20 AM 34.7908 -80.4253 193° South 407 468 40,000  Level Jacksonville Center
Fri 11:54:20 AM 34.6828 -80.4586 194° South 402 463 40,000 -50 Level Jacksonville Center
Fri 11:55:20 AM 34.5750 -80.4894 193° South 402 463 39,900  Descending Jacksonville Center
Fri 11:56:20 AM 34.4650 -80.5178 192° South 402 463 40,000 50 Climbing Jacksonville Center
Fri 11:57:20 AM 34.3572 -80.5483 193° South 402 463 40,000 -50 Level Jacksonville Center
Fri 11:58:20 AM 34.2472 -80.5789 193° South 402 463 39,900 -50 Descending Jacksonville Center
Fri 11:59:20 AM 34.1411 -80.6094 193° South 402 463 39,900 50 Level Jacksonville Center
Fri 12:00:20 PM 34.0311 -80.6397 193° South 402 463 40,000  Climbing Jacksonville Center
Fri 12:01:20 PM 33.9233 -80.6725 194° South 402 463 39,900 -50 Descending Jacksonville Center
Fri 12:02:20 PM 33.8175 -80.7053 194° South 402 463 39,900 50 Level Jacksonville Center
Fri 12:03:20 PM 33.7094 -80.7381 194° South 397 457 40,000  Climbing Jacksonville Center
Fri 12:04:20 PM 33.6036 -80.7706 194° South 392 451 39,900 -50 Descending Jacksonville Center
Fri 12:05:20 PM 33.4956 -80.8028 194° South 392 451 39,900  Level Jacksonville Center
Fri 12:06:20 PM 33.3897 -80.8378 195° South 392 451 39,900  Level Jacksonville Center
Fri 12:07:20 PM 33.2839 -80.8700 194° South 392 451 39,900  Level Jacksonville Center
Fri 12:08:20 PM 33.1781 -80.9047 195° South 392 451 39,900  Level Jacksonville Center
Fri 12:09:20 PM 33.0803 -80.9367 195° South 392 451 39,900  Level Jacksonville Center
Fri 12:10:20 PM 32.9744 -80.9711 195° South 397 457 39,900 50 Level Jacksonville Center
Fri 12:11:20 PM 32.8661 -80.9883 188° South 397 457 40,000  Climbing Jacksonville Center
Fri 12:12:20 PM 32.7536 -80.9906 181° South 397 457 39,900 -50 Descending Jacksonville Center
Fri 12:13:20 PM 32.6431 -80.9978 183° South 402 463 39,900  Level Jacksonville Center
Fri 12:14:20 PM 32.5322 -80.9953 179° South 402 463 39,900  Level Jacksonville Center
Fri 12:15:20 PM 32.4217 -80.9975 181° South 402 463 39,900 50 Level Jacksonville Center
Fri 12:16:20 PM 32.3131 -80.9997 181° South 397 457 40,000 50 Climbing Jacksonville Center
Fri 12:17:20 PM 32.1919 -80.9997 180° South 402 463 40,000  Level Jacksonville Center
Fri 12:18:20 PM 32.0794 -80.9997 180° South 402 463 40,000  Level Jacksonville Center
Fri 12:19:20 PM 31.9814 -81.0067 183° South 402 463 40,000  Level Jacksonville Center
Fri 12:20:20 PM 31.8606 -81.0214 186° South 402 463 40,000  Level Jacksonville Center
Fri 12:21:20 PM 31.7522 -81.0381 187° South 402 463 40,000  Level Jacksonville Center
Fri 12:22:20 PM 31.6522 -81.0547 188° South 408 470 40,000  Level Jacksonville Center
Fri 12:23:20 PM 31.5333 -81.0767 189° South 408 470 40,000  Level Jacksonville Center
Fri 12:24:20 PM 31.4231 -81.0983 190° South 408 470 40,000  Level Jacksonville Center
Fri 12:25:20 PM 31.3231 -81.1197 190° South 408 470 40,000  Level Jacksonville Center
Fri 12:26:20 PM 31.2106 -81.1339 186° South 408 470 40,000  Level Jacksonville Center
Fri 12:27:20 PM 31.0958 -81.1458 185° South 408 470 40,000 -50 Level Jacksonville Center
Fri 12:28:20 PM 30.9853 -81.1528 183° South 408 470 39,900  Descending Jacksonville Center
Fri 12:29:20 PM 30.8728 -81.1597 183° South 408 470 40,000 50 Climbing Jacksonville Center
Fri 12:30:20 PM 30.7581 -81.1617 181° South 403 464 40,000 -50 Level Jacksonville Center
Fri 12:31:20 PM 30.6453 -81.1589 179° South 403 464 39,900 -50 Descending Jacksonville Center
Fri 12:32:20 PM 30.5303 -81.1514 177° South 403 464 39,900 50 Level Jacksonville Center
Fri 12:33:20 PM 30.4194 -81.1461 178° South 403 464 40,000  Climbing Jacksonville Center
Fri 12:34:20 PM 30.3067 -81.1408 178° South 403 464 39,900 -150 Descending Jacksonville Center
Fri 12:35:20 PM 30.1897 -81.1383 179° South 408 470 39,700 -250 Descending Jacksonville Center
Fri 12:36:20 PM 30.0706 -81.1333 178° South 415 478 39,400 -400 Descending Jacksonville Center
Fri 12:37:20 PM 29.9536 -81.1331 180° South 421 484 38,900 -600 Descending Jacksonville Center
Fri 12:38:20 PM 29.8328 -81.1353 181° South 426 490 38,200 -700 Descending Jacksonville Center
Fri 12:39:20 PM 29.7158 -81.1372 181° South 426 490 37,500 -850 Descending Jacksonville Center
Fri 12:40:20 PM 29.5967 -81.1322 178° South 426 490 36,500 -1,000 Descending Jacksonville Center
Fri 12:41:20 PM 29.4756 -81.1225 176° South 421 484 35,500 -900 Descending Jacksonville Center
Fri 12:42:20 PM 29.3606 -81.1056 173° South 421 484 34,700 -1,032 Descending Jacksonville Center
Fri 12:43:57 PM 29.1769 -81.0203 158° South 442 509 32,800 -1,414 Descending Miami Center
Fri 12:44:57 PM 29.0619 -80.9589 155° Southeast 442 509 31,000 -1,850 Descending Miami Center
Fri 12:45:57 PM 28.9511 -80.9003 155° Southeast 447 514 29,100 -1,800 Descending Miami Center
Fri 12:46:57 PM 28.8403 -80.8372 154° Southeast 453 521 27,400 -1,650 Descending Miami Center
Fri 12:47:57 PM 28.7292 -80.7786 155° Southeast 443 510 25,800 -1,550 Descending Miami Center
Fri 12:48:57 PM 28.6222 -80.7253 156° South 433 498 24,300 -1,550 Descending Miami Center
Fri 12:49:57 PM 28.5067 -80.6692 157° South 421 484 22,700 -1,400 Descending Miami Center
Fri 12:50:57 PM 28.4039 -80.6186 157° South 410 472 21,500 -1,100 Descending Miami Center
Fri 12:51:57 PM 28.3131 -80.5731 156° South 403 464 20,500 -1,050 Descending Miami Center
Fri 12:52:57 PM 28.2142 -80.5253 157° South 397 457 19,400 -1,200 Descending Miami Center
Fri 12:53:57 PM 28.1172 -80.4797 157° South 386 444 18,100 -1,300 Descending Miami Center
Fri 12:54:57 PM 28.0225 -80.4294 155° Southeast 386 444 16,800 -1,300 Descending Miami Center
Fri 12:55:57 PM 27.9256 -80.3864 159° South 386 444 15,500 -1,300 Descending Miami Center
Fri 12:56:57 PM 27.8242 -80.3411 158° South 376 433 14,200 -1,250 Descending Miami Center
Fri 12:57:57 PM 27.7436 -80.3106 161° South 353 406 13,000 -1,300 Descending Miami Center
Fri 12:58:57 PM 27.6589 -80.2728 158° South 334 384 11,600 -1,500 Descending Miami Center
Fri 12:59:57 PM 27.5700 -80.2419 163° South 316 364 10,000 -2,200 Descending Miami Center
Fri 01:00:57 PM 27.4953 -80.2189 165° South 295 339 7,200 -2,900 Descending Miami Center
Fri 01:01:57 PM 27.4236 -80.2425 196° South 261 300 4,200 -1,650 Descending Miami Center
Fri 01:02:57 PM 27.3678 -80.2197 160° South 241 277 3,900 -550 Descending Miami Center
Fri 01:03:57 PM 27.3100 -80.1947 159° South 236 272 3,100 -850 Descending Miami Center
Fri 01:04:57 PM 27.2481 -80.1672 158° South 219 252 2,200 -650 Descending Miami Center
Fri 01:05:57 PM 27.2003 -80.1494 162° South 195 224 1,800 -650 Descending Miami Center
Fri 01:06:57 PM 27.1664 -80.1789 218° Southwest 152 175 900 -600 Descending Miami Center
Fri 01:07:57 PM 27.1367 -80.1992 211° Southwest 137 158 600 -300 Descending Miami Center

Login

Don't have an account? Register now (free) for customized features, flight alerts, and more!